createdAt,value
2017-10-26T00:00:27.883Z,72.29
2017-10-26T00:03:01.151Z,72.10
2017-10-26T00:05:35.014Z,71.75
2017-10-26T00:08:08.187Z,71.50
2017-10-26T00:10:43.709Z,71.46
2017-10-26T00:13:46.725Z,70.84
2017-10-26T00:16:44.612Z,70.40
2017-10-26T00:19:34.882Z,70.15
2017-10-26T00:22:18.111Z,70.95
2017-10-26T00:24:52.104Z,71.51
2017-10-26T00:27:49.945Z,72.31
2017-10-26T00:30:25.195Z,72.24
2017-10-26T00:32:59.406Z,71.98
2017-10-26T00:35:31.905Z,72.31
2017-10-26T00:38:15.547Z,72.27
2017-10-26T00:40:49.108Z,72.12
2017-10-26T00:43:23.011Z,71.71
2017-10-26T00:45:57.087Z,71.21
2017-10-26T00:48:30.659Z,70.82
2017-10-26T00:51:03.024Z,70.49
2017-10-26T00:53:35.020Z,70.27
2017-10-26T00:59:02.007Z,69.78
2017-10-26T01:01:34.579Z,69.67
2017-10-26T01:09:45.108Z,69.78
2017-10-26T01:12:18.892Z,69.96
2017-10-26T01:14:50.618Z,69.60
2017-10-26T01:20:25.724Z,69.65
2017-10-26T01:29:44.397Z,70.38
2017-10-26T01:32:53.607Z,69.99
2017-10-26T01:35:29.917Z,69.92
2017-10-26T01:38:06.585Z,69.71
2017-10-26T01:40:40.228Z,69.53
2017-10-26T01:43:20.705Z,69.39
2017-10-26T01:46:10.254Z,69.37
2017-10-26T01:48:47.905Z,70.14
2017-10-26T01:54:04.562Z,70.71
2017-10-26T01:56:40.342Z,70.65
2017-10-26T01:59:19.426Z,70.73
2017-10-26T02:01:54.123Z,70.61
2017-10-26T02:04:27.634Z,70.46
2017-10-26T02:07:06.964Z,70.29
2017-10-26T02:09:45.188Z,70.14
2017-10-26T02:12:31.042Z,70.01
2017-10-26T02:18:02.798Z,69.83
2017-10-26T02:20:44.829Z,69.78
2017-10-26T02:23:31.318Z,69.67
2017-10-26T02:26:27.487Z,69.57
2017-10-26T02:32:27.247Z,69.62
2017-10-26T02:38:10.891Z,69.68
2017-10-26T02:41:13.052Z,69.36
2017-10-26T02:43:48.620Z,69.20
2017-10-26T02:46:40.217Z,69.10
2017-10-26T02:49:45.219Z,69.16
2017-10-26T02:52:22.344Z,69.54
2017-10-26T02:55:01.080Z,70.56
2017-10-26T02:57:42.943Z,70.08
2017-10-26T03:00:22.713Z,70.11
2017-10-26T03:03:02.012Z,71.01
2017-10-26T03:05:47.614Z,70.35
2017-10-26T03:08:36.323Z,69.90
2017-10-26T03:11:14.540Z,69.82
2017-10-26T03:14:10.301Z,69.63
2017-10-26T03:16:48.661Z,69.47
2017-10-26T03:19:24.421Z,69.78
2017-10-26T03:21:57.712Z,72.20
2017-10-26T03:24:28.841Z,72.69
2017-10-26T03:27:03.106Z,72.44
2017-10-26T03:29:35.695Z,72.40
2017-10-26T03:32:08.130Z,71.51
2017-10-26T03:34:47.510Z,70.79
2017-10-26T03:37:28.604Z,70.35
2017-10-26T03:40:07.635Z,70.47
2017-10-26T03:42:45.286Z,70.60
2017-10-26T03:45:23.542Z,70.60
2017-10-26T03:48:02.877Z,70.63
2017-10-26T03:50:37.952Z,70.34
2017-10-26T03:53:14.614Z,70.04
2017-10-26T03:58:30.112Z,69.93
2017-10-26T04:01:11.298Z,69.84
2017-10-26T04:03:51.922Z,70.24
2017-10-26T04:06:27.403Z,70.39
2017-10-26T04:09:11.103Z,70.55
2017-10-26T04:11:58.513Z,70.40
2017-10-26T04:14:31.809Z,70.15
2017-10-26T04:17:06.520Z,69.96
2017-10-26T04:19:39.516Z,69.79
2017-10-26T04:22:12.920Z,69.78
2017-10-26T04:24:51.236Z,69.71
2017-10-26T04:27:48.465Z,70.31
2017-10-26T04:30:28.335Z,70.63
2017-10-26T04:33:09.853Z,70.94
2017-10-26T04:35:45.206Z,70.94
2017-10-26T04:38:18.885Z,70.62
2017-10-26T04:40:52.091Z,70.37
2017-10-26T04:43:27.384Z,70.42
2017-10-26T04:46:00.592Z,70.47
2017-10-26T04:48:33.185Z,70.49
2017-10-26T04:51:06.302Z,70.71
2017-10-26T04:53:40.702Z,70.91
2017-10-26T04:56:16.581Z,71.20
2017-10-26T04:58:49.109Z,71.26
2017-10-26T05:01:30.940Z,71.02
2017-10-26T05:04:19.224Z,71.49
2017-10-26T05:06:53.718Z,71.08
2017-10-26T05:09:27.531Z,71.31
2017-10-26T05:12:01.032Z,71.25
2017-10-26T05:20:00.935Z,71.07
2017-10-26T05:22:34.231Z,71.26
2017-10-26T05:28:08.645Z,70.60
2017-10-26T05:30:42.525Z,70.37
2017-10-26T05:33:34.669Z,70.93
2017-10-26T05:36:26.522Z,71.11
2017-10-26T05:39:07.001Z,71.48
2017-10-26T05:41:43.945Z,72.17
2017-10-26T05:44:17.305Z,72.47
2017-10-26T05:54:41.801Z,72.71
2017-10-26T05:57:15.437Z,72.96
2017-10-26T05:59:48.402Z,72.69
2017-10-26T06:02:33.755Z,72.96
2017-10-26T06:05:08.651Z,73.67
2017-10-26T06:07:40.897Z,73.04
2017-10-26T06:13:32.229Z,72.34
2017-10-26T06:16:12.842Z,72.08
2017-10-26T06:24:02.933Z,71.58
2017-10-26T06:26:36.874Z,71.46
2017-10-26T06:29:12.659Z,71.05
2017-10-26T06:31:48.038Z,70.66
2017-10-26T06:34:24.733Z,70.25
2017-10-26T06:37:15.737Z,70.23
2017-10-26T06:39:48.738Z,70.33
2017-10-26T06:42:23.558Z,70.21
2017-10-26T06:45:00.035Z,70.15
2017-10-26T06:47:47.716Z,69.90
2017-10-26T06:50:27.830Z,70.73
2017-10-26T06:53:10.384Z,71.63
2017-10-26T06:55:46.167Z,71.90
2017-10-26T06:58:43.703Z,71.50
2017-10-26T07:01:25.776Z,71.19
2017-10-26T07:04:07.001Z,70.87
2017-10-26T07:06:43.197Z,71.23
2017-10-26T07:09:21.805Z,70.73
2017-10-26T07:11:56.252Z,70.33
2017-10-26T07:14:31.224Z,70.11
2017-10-26T08:02:58.775Z,72.16
2017-10-26T08:05:38.118Z,71.43
2017-10-26T08:08:17.232Z,70.35
2017-10-26T08:10:54.207Z,69.51
2017-10-26T08:13:36.833Z,69.13
2017-10-26T08:16:14.535Z,68.41
2017-10-26T08:19:03.443Z,67.47
2017-10-26T08:21:47.802Z,67.99
2017-10-26T08:24:39.361Z,67.08
2017-10-26T08:27:18.943Z,66.45
2017-10-26T08:29:54.480Z,65.14
2017-10-26T08:32:35.296Z,65.64
2017-10-26T08:35:16.626Z,65.24
2017-10-26T08:38:04.729Z,65.09
2017-10-26T08:40:40.291Z,64.71
2017-10-26T08:43:32.277Z,64.82
2017-10-26T08:46:12.759Z,63.61
2017-10-26T08:51:56.557Z,62.54
2017-10-26T08:54:57.242Z,62.65
2017-10-26T08:57:45.889Z,62.11
2017-10-26T09:00:30.179Z,62.52
2017-10-26T09:03:17.000Z,61.57
2017-10-26T09:06:01.644Z,61.92
2017-10-26T09:08:44.306Z,61.54
2017-10-26T09:11:42.094Z,59.99
2017-10-26T09:14:35.843Z,61.01
2017-10-26T09:17:13.744Z,60.59
2017-10-26T09:19:51.625Z,59.95
2017-10-26T09:22:36.279Z,59.59
2017-10-26T09:25:39.918Z,59.97
2017-10-26T09:28:14.215Z,60.65
2017-10-26T09:30:53.814Z,60.50
2017-10-26T09:33:39.211Z,59.80
2017-10-26T09:36:16.644Z,60.93
2017-10-26T09:38:53.814Z,61.05
2017-10-26T09:41:38.097Z,61.24
2017-10-26T09:48:15.555Z,62.12
2017-10-26T09:51:04.568Z,61.83
2017-10-26T09:53:49.179Z,62.07
2017-10-26T09:59:04.734Z,62.15
2017-10-26T10:01:41.083Z,62.89
2017-10-26T10:04:16.215Z,62.35
2017-10-26T10:07:07.671Z,61.34
2017-10-26T10:09:44.068Z,60.05
2017-10-26T10:12:19.096Z,59.75
2017-10-26T10:17:56.046Z,58.27
2017-10-26T10:20:47.288Z,59.30
2017-10-26T10:26:50.628Z,60.28
2017-10-26T10:29:33.118Z,60.58
2017-10-26T10:32:08.126Z,60.90
2017-10-26T10:35:02.896Z,60.82
2017-10-26T10:37:44.224Z,60.97
2017-10-26T10:40:34.130Z,60.68
2017-10-26T10:46:12.128Z,57.59
2017-10-26T10:49:06.375Z,56.23
2017-10-26T10:51:43.140Z,56.69
2017-10-26T10:54:23.857Z,57.05
2017-10-26T10:57:06.879Z,57.02
2017-10-26T10:59:53.939Z,56.23
2017-10-26T11:08:41.676Z,57.38
2017-10-26T11:11:14.953Z,57.56
2017-10-26T11:13:48.240Z,57.24
2017-10-26T11:16:27.879Z,56.43
2017-10-26T11:22:06.033Z,54.75
2017-10-26T11:24:45.818Z,55.48
2017-10-26T11:30:15.080Z,56.03
2017-10-26T11:35:39.001Z,56.00
2017-10-26T11:38:12.725Z,56.40
2017-10-26T11:40:47.591Z,56.52
2017-10-26T11:43:28.253Z,56.31
2017-10-26T11:49:30.769Z,57.24
2017-10-26T11:52:13.531Z,56.99
2017-10-26T11:54:53.626Z,57.40
2017-10-26T11:57:28.503Z,56.80
2017-10-26T12:00:17.995Z,56.71
2017-10-26T12:02:56.347Z,57.21
2017-10-26T12:05:32.688Z,57.13
2017-10-26T12:08:26.093Z,56.74
2017-10-26T12:11:09.129Z,56.00
2017-10-26T12:15:05.676Z,55.34
2017-10-26T12:17:51.519Z,55.06
2017-10-26T12:20:29.419Z,55.02
2017-10-26T12:23:50.033Z,54.23
2017-10-26T12:27:38.922Z,53.38
2017-10-26T12:30:17.215Z,53.53
2017-10-26T12:45:23.158Z,51.64
2017-10-26T12:48:14.845Z,51.85
2017-10-26T12:50:52.334Z,51.40
2017-10-26T12:53:27.521Z,51.13
2017-10-26T12:58:41.396Z,50.18
2017-10-26T13:01:16.328Z,49.40
2017-10-26T13:03:48.826Z,49.50
2017-10-26T13:06:22.730Z,50.05
2017-10-26T13:08:59.739Z,50.58
2017-10-26T13:11:38.411Z,51.34
2017-10-26T13:14:14.422Z,51.91
2017-10-26T13:16:59.242Z,51.53
2017-10-26T13:19:33.762Z,51.49
2017-10-26T13:22:14.440Z,51.84
2017-10-26T13:25:09.744Z,52.22
2017-10-26T13:27:43.453Z,52.76
2017-10-26T13:30:20.560Z,53.92
2017-10-26T13:33:01.044Z,53.94
2017-10-26T13:35:33.645Z,53.24
2017-10-26T13:38:11.747Z,54.03
2017-10-26T13:40:58.942Z,53.95
2017-10-26T13:43:50.326Z,53.57
2017-10-26T13:46:24.730Z,52.89
2017-10-26T13:49:10.261Z,52.85
2017-10-26T13:51:43.617Z,52.60
2017-10-26T13:54:15.937Z,53.71
2017-10-26T13:57:02.019Z,53.42
2017-10-26T13:59:36.334Z,53.18
2017-10-26T14:02:10.808Z,54.46
2017-10-26T14:04:50.073Z,54.93
2017-10-26T14:08:17.977Z,54.93
2017-10-26T14:10:51.085Z,55.65
2017-10-26T14:13:24.801Z,56.04
2017-10-26T14:15:58.381Z,56.12
2017-10-26T14:18:32.453Z,56.20
2017-10-26T14:21:08.021Z,56.05
2017-10-26T14:23:41.272Z,55.81
2017-10-26T14:26:13.985Z,55.75
2017-10-26T14:28:47.726Z,56.11
2017-10-26T14:31:25.607Z,56.37
2017-10-26T14:33:59.367Z,56.43
2017-10-26T14:36:33.604Z,56.43
2017-10-26T14:39:07.536Z,56.41
2017-10-26T14:41:39.985Z,56.30
2017-10-26T14:44:16.591Z,56.55
2017-10-26T14:46:50.004Z,57.38
2017-10-26T14:52:07.830Z,57.79
2017-10-26T14:54:43.633Z,57.87
2017-10-26T14:57:20.507Z,58.01
2017-10-26T14:59:53.650Z,58.34
2017-10-26T15:02:31.112Z,58.56
2017-10-26T15:09:15.537Z,59.45
2017-10-26T15:11:49.020Z,59.23
2017-10-26T15:14:27.777Z,59.84
2017-10-26T15:17:04.839Z,59.46
2017-10-26T15:19:52.001Z,59.01
2017-10-26T15:22:25.891Z,59.18
2017-10-26T15:25:11.355Z,59.75
2017-10-26T15:27:43.881Z,60.15
2017-10-26T15:30:28.409Z,61.01
2017-10-26T15:36:20.283Z,61.94
2017-10-26T15:38:52.970Z,62.45
2017-10-26T15:41:27.667Z,62.84
2017-10-26T15:44:01.662Z,63.19
2017-10-26T15:46:44.125Z,63.53
2017-10-26T15:49:17.485Z,63.55
2017-10-26T15:51:51.360Z,63.73
2017-10-26T15:54:24.250Z,63.86
2017-10-26T15:56:59.059Z,64.37
2017-10-26T15:59:32.008Z,64.62
2017-10-26T16:02:06.765Z,64.71
2017-10-26T16:04:39.556Z,64.67
2017-10-26T16:07:33.618Z,66.07
2017-10-26T16:10:06.257Z,66.73
2017-10-26T16:12:39.255Z,66.98
2017-10-26T16:15:14.733Z,66.70
2017-10-26T16:17:51.438Z,66.65
2017-10-26T16:20:23.943Z,67.18
2017-10-26T16:22:59.532Z,67.13
2017-10-26T16:25:39.276Z,67.15
2017-10-26T16:28:12.830Z,68.25
2017-10-26T16:33:24.565Z,70.62
2017-10-26T16:35:57.405Z,71.48
2017-10-26T16:38:29.903Z,72.23
2017-10-26T16:41:02.196Z,72.65
2017-10-26T16:43:35.148Z,72.74
2017-10-26T16:46:13.514Z,73.23
2017-10-26T16:48:45.494Z,74.17
2017-10-26T16:51:19.686Z,73.93
2017-10-26T16:53:51.906Z,73.32
2017-10-26T16:56:24.630Z,73.38
2017-10-26T16:58:57.096Z,73.34
2017-10-26T17:01:30.594Z,73.25
2017-10-26T17:04:02.688Z,72.92
2017-10-26T17:06:35.323Z,72.39
2017-10-26T17:09:08.481Z,73.11
2017-10-26T17:11:40.803Z,74.00
2017-10-26T17:14:12.974Z,73.54
2017-10-26T17:16:45.564Z,73.80
2017-10-26T17:22:08.413Z,73.64
2017-10-26T17:24:40.596Z,72.91
2017-10-26T17:27:13.195Z,73.05
2017-10-26T17:29:46.676Z,72.98
2017-10-26T17:32:21.015Z,72.87
2017-10-26T17:34:56.044Z,73.44
2017-10-26T17:37:28.029Z,73.21
2017-10-26T17:40:01.804Z,73.14
2017-10-26T17:42:34.423Z,72.76
2017-10-26T17:45:21.825Z,74.22
2017-10-26T17:48:12.818Z,74.21
2017-10-26T17:50:44.970Z,74.59
2017-10-26T17:53:36.761Z,74.25
2017-10-26T18:09:07.557Z,75.70
2017-10-26T18:11:49.168Z,75.71
2017-10-26T18:14:22.969Z,75.51
2017-10-26T18:16:57.063Z,76.03
2017-10-26T18:19:44.541Z,76.28
2017-10-26T18:22:32.466Z,76.62
2017-10-26T18:25:05.018Z,76.28
2017-10-26T18:27:38.735Z,76.24
2017-10-26T18:30:20.566Z,77.01
2017-10-26T18:32:52.557Z,77.10
2017-10-26T18:35:30.083Z,76.19
2017-10-26T18:38:03.060Z,75.80
2017-10-26T18:40:35.161Z,76.10
2017-10-26T18:43:07.659Z,76.30
2017-10-26T18:45:58.208Z,75.91
2017-10-26T18:48:48.579Z,75.72
2017-10-26T18:51:22.285Z,74.98
2017-10-26T18:53:55.150Z,75.28
2017-10-26T18:56:29.360Z,75.78
2017-10-26T18:59:03.274Z,75.56
2017-10-26T19:01:37.354Z,75.45
2017-10-26T19:04:11.614Z,75.19
2017-10-26T19:06:44.995Z,75.15
2017-10-26T19:09:19.815Z,74.98
2017-10-26T19:11:52.584Z,74.42
2017-10-26T19:14:27.659Z,73.99
2017-10-26T19:17:03.071Z,73.75
2017-10-26T19:19:36.854Z,73.96
2017-10-26T19:22:11.183Z,73.35
2017-10-26T19:24:43.791Z,73.32
2017-10-26T19:27:21.908Z,73.28
2017-10-26T19:29:54.879Z,73.15
2017-10-26T19:32:45.515Z,73.06
2017-10-26T19:38:41.785Z,73.33
2017-10-26T19:41:14.965Z,73.78
2017-10-26T19:43:49.199Z,73.95
2017-10-26T19:49:02.847Z,74.71
2017-10-26T19:51:35.483Z,75.27
2017-10-26T19:54:08.756Z,74.97
2017-10-26T19:56:43.450Z,75.25
2017-10-26T19:59:47.754Z,75.19
2017-10-26T20:02:22.457Z,75.14
2017-10-26T20:04:56.710Z,74.83
2017-10-26T20:07:34.417Z,75.32
2017-10-26T20:10:09.664Z,75.61
2017-10-26T20:12:41.893Z,75.46
2017-10-26T20:15:20.695Z,74.98
2017-10-26T20:18:06.151Z,74.64
2017-10-26T20:21:32.452Z,74.10
2017-10-26T20:24:07.898Z,74.24
2017-10-26T20:26:50.405Z,74.49
2017-10-26T20:29:26.018Z,75.09
2017-10-26T20:32:07.533Z,75.13
2017-10-26T20:34:41.946Z,74.54
2017-10-26T20:37:14.635Z,74.48
2017-10-26T20:39:47.622Z,74.87
2017-10-26T20:42:22.448Z,75.36
2017-10-26T20:44:57.786Z,74.76
2017-10-26T20:47:32.234Z,74.75
2017-10-26T20:50:18.160Z,74.44
2017-10-26T20:55:02.704Z,74.33
2017-10-26T20:59:48.222Z,73.10
2017-10-26T21:04:27.017Z,72.75
2017-10-26T21:07:13.399Z,71.98
2017-10-26T21:09:50.609Z,71.70
2017-10-26T21:13:31.219Z,70.40
2017-10-26T21:16:14.334Z,70.54
2017-10-26T21:18:49.042Z,69.15
2017-10-26T21:21:25.661Z,69.23
2017-10-26T21:23:58.835Z,67.94
2017-10-26T21:26:31.292Z,68.81
2017-10-26T21:29:42.855Z,68.58
2017-10-26T21:32:48.943Z,68.60
2017-10-26T21:35:26.724Z,68.70
2017-10-26T21:37:58.948Z,67.73
2017-10-26T21:40:47.446Z,67.64
2017-10-26T21:43:40.910Z,68.23
2017-10-26T21:46:18.244Z,68.05
2017-10-26T21:48:51.556Z,68.21
2017-10-26T21:51:27.143Z,68.18
2017-10-26T21:54:03.053Z,67.65
2017-10-26T21:56:35.770Z,68.06
2017-10-26T21:59:09.359Z,68.35
2017-10-26T22:01:42.877Z,67.93
2017-10-26T22:04:17.061Z,68.46
2017-10-26T22:06:51.336Z,68.79
2017-10-26T22:09:33.308Z,68.38
2017-10-26T22:12:07.513Z,68.09
2017-10-26T22:14:41.314Z,68.04
2017-10-26T22:17:15.142Z,68.55
2017-10-26T22:19:56.973Z,68.66
2017-10-26T22:22:30.153Z,68.97
2017-10-26T22:25:03.957Z,68.77
2017-10-26T22:27:37.663Z,68.72
2017-10-26T22:30:13.655Z,68.73
2017-10-26T22:32:47.468Z,68.46
2017-10-26T22:36:07.839Z,68.55
2017-10-26T22:38:40.994Z,68.71
2017-10-26T22:41:14.817Z,68.80
2017-10-26T22:43:46.842Z,68.57
2017-10-26T22:46:29.185Z,68.31
2017-10-26T22:49:02.641Z,68.48
2017-10-26T22:51:34.931Z,68.37
2017-10-26T22:54:08.078Z,68.54
2017-10-26T22:56:40.920Z,68.22
2017-10-26T22:59:14.165Z,68.15
2017-10-26T23:01:46.231Z,68.06
2017-10-26T23:04:19.525Z,68.12
2017-10-26T23:06:52.607Z,68.77
2017-10-26T23:09:27.935Z,69.43
2017-10-26T23:12:00.104Z,69.38
2017-10-26T23:14:32.533Z,69.46
2017-10-26T23:17:05.763Z,69.74
2017-10-26T23:19:39.036Z,69.22
2017-10-26T23:22:12.266Z,69.30
2017-10-26T23:24:45.114Z,69.38
2017-10-26T23:27:24.262Z,69.55
2017-10-26T23:29:57.262Z,69.41
2017-10-26T23:32:29.530Z,69.36
2017-10-26T23:35:02.345Z,68.99
2017-10-26T23:37:34.735Z,69.12
2017-10-26T23:42:46.754Z,70.76
2017-10-26T23:45:21.364Z,70.66
2017-10-26T23:47:53.339Z,70.54
2017-10-26T23:50:26.154Z,70.87
2017-10-26T23:53:01.952Z,71.00
2017-10-26T23:55:34.565Z,71.02
2017-10-26T23:58:07.057Z,71.43
